createdAt,value
2023-05-21T00:01:16.788Z,2.2125
2023-05-21T00:04:18.106Z,2.25
2023-05-21T00:07:17.296Z,2.1999999999999997
2023-05-21T00:11:16.531Z,2.3375
2023-05-21T00:14:16.933Z,2.4499999999999997
2023-05-21T00:17:16.709Z,1.775
2023-05-21T00:21:17.857Z,2.35
2023-05-21T00:24:16.585Z,2.1375
2023-05-21T00:27:16.955Z,2.075
2023-05-21T00:31:17.848Z,2.075
2023-05-21T00:34:16.775Z,2.1125
2023-05-21T00:37:16.619Z,2.1624999999999996
2023-05-21T00:41:16.969Z,1.7874999999999999
2023-05-21T00:44:18.440Z,2.2
2023-05-21T00:47:18.831Z,1.4
2023-05-21T00:51:17.170Z,1.9625
2023-05-21T00:54:16.959Z,2.0625
2023-05-21T01:01:16.421Z,2.3875
2023-05-21T01:04:16.907Z,1.6375000000000002
2023-05-21T01:07:16.358Z,1.9000000000000001
2023-05-21T01:11:17.798Z,2.2874999999999996
2023-05-21T01:14:17.708Z,2.425
2023-05-21T01:17:16.597Z,1.8375
2023-05-21T01:21:19.172Z,2.025
2023-05-21T01:24:16.455Z,2.3
2023-05-21T01:27:17.371Z,1.5125
2023-05-21T01:31:25.545Z,1.9
2023-05-21T01:34:20.633Z,1.9625
2023-05-21T01:37:21.962Z,2.35
2023-05-21T01:41:19.046Z,2.475
2023-05-21T01:44:18.076Z,1.775
2023-05-21T01:47:17.959Z,2.7750000000000004
2023-05-21T01:51:16.852Z,1.575
2023-05-21T01:54:16.691Z,2.35
2023-05-21T01:57:17.381Z,1.7625000000000002
2023-05-21T02:01:15.762Z,2.125
2023-05-21T02:04:16.222Z,1.6375
2023-05-21T02:07:16.185Z,2.1999999999999997
2023-05-21T02:11:16.304Z,1.7625000000000002
2023-05-21T02:14:16.985Z,1.7125
2023-05-21T02:17:17.630Z,1.65
2023-05-21T02:21:16.648Z,1.75
2023-05-21T02:24:17.039Z,1.3625
2023-05-21T02:27:18.059Z,1.2125
2023-05-21T02:31:16.969Z,1.4000000000000001
2023-05-21T02:34:17.969Z,2.0375
2023-05-21T02:37:17.853Z,1.625
2023-05-21T02:41:16.490Z,2.2
2023-05-21T02:44:20.233Z,1.2125
2023-05-21T02:47:16.983Z,1.5750000000000002
2023-05-21T02:51:16.160Z,2.325
2023-05-21T02:54:16.603Z,2.2249999999999996
2023-05-21T02:57:18.717Z,1.7125000000000001
2023-05-21T03:01:17.111Z,1.9124999999999999
2023-05-21T03:04:17.407Z,1.9875
2023-05-21T03:07:19.292Z,1.925
2023-05-21T03:11:18.295Z,1.7999999999999998
2023-05-21T03:14:17.009Z,1.625
2023-05-21T03:17:17.536Z,1.3375
2023-05-21T03:21:16.393Z,1.775
2023-05-21T03:24:16.673Z,1.625
2023-05-21T03:27:17.010Z,2.9875
2023-05-21T03:31:16.405Z,1.7625
2023-05-21T03:34:16.823Z,2.4250000000000003
2023-05-21T03:37:16.712Z,2.425
2023-05-21T03:41:16.800Z,1.8375
2023-05-21T03:44:16.905Z,1.725
2023-05-21T03:47:16.842Z,1.825
2023-05-21T03:51:18.154Z,1.85
2023-05-21T03:54:16.689Z,1.2875
2023-05-21T03:57:16.876Z,1.9875
2023-05-21T04:01:15.885Z,2.2125
2023-05-21T04:04:16.563Z,2.2375
2023-05-21T04:07:19.449Z,2.0125
2023-05-21T04:11:16.483Z,2.2874999999999996
2023-05-21T04:14:16.831Z,2.825
2023-05-21T04:17:16.903Z,2.1875
2023-05-21T04:21:17.010Z,2.3875
2023-05-21T04:24:17.335Z,1.9375
2023-05-21T04:27:17.314Z,1.725
2023-05-21T04:31:16.411Z,1.7
2023-05-21T04:34:18.283Z,1.575
2023-05-21T04:37:18.211Z,2.0374999999999996
2023-05-21T04:41:19.282Z,1.6875
2023-05-21T04:44:16.809Z,2.275
2023-05-21T04:47:17.114Z,1.6375
2023-05-21T04:51:16.387Z,2.0999999999999996
2023-05-21T04:54:16.757Z,2.3125
2023-05-21T04:57:18.522Z,1.2999999999999998
2023-05-21T05:01:16.614Z,2.3875
2023-05-21T05:04:16.679Z,2.0125
2023-05-21T05:07:17.151Z,2.25
2023-05-21T05:11:16.502Z,1.825
2023-05-21T05:14:16.979Z,2.1624999999999996
2023-05-21T05:17:16.998Z,1.6875
2023-05-21T05:21:16.604Z,1.9375
2023-05-21T05:24:16.914Z,1.4625
2023-05-21T05:27:18.108Z,1.9249999999999998
2023-05-21T05:31:16.978Z,2.1125000000000003
2023-05-21T05:34:17.216Z,2.0250000000000004
2023-05-21T05:37:17.551Z,2.25
2023-05-21T05:41:16.333Z,2.75
2023-05-21T05:44:16.785Z,2.3125
2023-05-21T05:47:16.741Z,2.5125
2023-05-21T05:51:17.545Z,2.15
2023-05-21T05:54:16.804Z,2.2375
2023-05-21T05:57:16.796Z,1.975
2023-05-21T06:01:18.833Z,2.2125000000000004
2023-05-21T06:04:17.336Z,1.8125000000000002
2023-05-21T06:07:17.151Z,1.9375
2023-05-21T06:11:17.473Z,2.425
2023-05-21T06:14:16.797Z,2.025
2023-05-21T06:17:16.894Z,2.4625
2023-05-21T06:21:16.720Z,2.1875
2023-05-21T06:24:16.786Z,2.175
2023-05-21T06:27:16.970Z,2.2625
2023-05-21T06:31:16.664Z,2.5625
2023-05-21T06:34:16.605Z,1.85
2023-05-21T06:37:19.508Z,2.3500000000000005
2023-05-21T06:41:16.161Z,2.25
2023-05-21T06:44:16.771Z,2.1875
2023-05-21T06:47:16.507Z,2.3625
2023-05-21T06:51:17.048Z,2.25
2023-05-21T06:54:17.361Z,2.55
2023-05-21T06:57:17.492Z,2.7375
2023-05-21T07:01:17.422Z,2.45
2023-05-21T07:04:18.667Z,2.3
2023-05-21T07:07:17.438Z,2.15
2023-05-21T07:11:16.516Z,2.1875
2023-05-21T07:14:16.817Z,2.7125
2023-05-21T07:17:17.507Z,2.475
2023-05-21T07:21:17.651Z,2.6
2023-05-21T07:24:18.186Z,2.8875
2023-05-21T07:27:25.487Z,2.3875
2023-05-21T07:31:18.460Z,2.375
2023-05-21T07:34:18.118Z,2.4625
2023-05-21T07:37:16.600Z,2.9000000000000004
2023-05-21T07:41:18.506Z,2.5
2023-05-21T07:44:16.875Z,2.2625
2023-05-21T07:47:17.021Z,3.075
2023-05-21T07:51:17.060Z,3.3
2023-05-21T07:54:16.926Z,3.0875
2023-05-21T07:57:16.875Z,2.9375
2023-05-21T08:01:17.530Z,3.0625
2023-05-21T08:04:17.292Z,2.7750000000000004
2023-05-21T08:07:20.973Z,2.6500000000000004
2023-05-21T08:11:17.863Z,3.0125
2023-05-21T08:14:19.414Z,2.6625
2023-05-21T08:17:17.351Z,2.8
2023-05-21T08:21:17.403Z,3.5
2023-05-21T08:24:16.969Z,2.875
2023-05-21T08:27:16.560Z,3.375
2023-05-21T08:31:18.059Z,3.6999999999999997
2023-05-21T08:34:18.332Z,2.9625
2023-05-21T08:37:20.322Z,2.4875
2023-05-21T08:41:19.871Z,2.7125
2023-05-21T08:44:20.376Z,3.5625
2023-05-21T08:47:23.153Z,4.012499999999999
2023-05-21T08:51:16.346Z,3.3374999999999995
2023-05-21T08:54:16.774Z,3.1875
2023-05-21T08:57:18.510Z,2.725
2023-05-21T09:01:20.458Z,3.325
2023-05-21T09:04:21.381Z,2.9625
2023-05-21T09:07:17.678Z,2.9375
2023-05-21T09:11:16.480Z,3.6375
2023-05-21T09:14:18.683Z,3.125
2023-05-21T09:17:17.494Z,2.8875
2023-05-21T09:21:25.618Z,3.2750000000000004
2023-05-21T09:24:20.289Z,2.9375
2023-05-21T09:27:18.134Z,3.025
2023-05-21T09:31:16.108Z,3.1125
2023-05-21T09:34:16.721Z,3.4499999999999997
2023-05-21T09:37:26.687Z,3.3
2023-05-21T09:41:20.519Z,3.4000000000000004
2023-05-21T09:44:16.764Z,3.1875
2023-05-21T09:47:19.867Z,3.4625
2023-05-21T09:51:18.277Z,3.5999999999999996
2023-05-21T09:54:16.753Z,3.1500000000000004
2023-05-21T09:57:22.056Z,3.0999999999999996
2023-05-21T10:01:18.594Z,4.5875
2023-05-21T10:04:17.355Z,3.175
2023-05-21T10:07:19.377Z,3.5625
2023-05-21T10:11:16.375Z,3.1375
2023-05-21T10:14:19.254Z,2.9875
2023-05-21T10:17:16.142Z,2.9375
2023-05-21T10:21:16.952Z,3.55
2023-05-21T10:24:17.107Z,3.5125
2023-05-21T10:27:16.889Z,3.75
2023-05-21T10:31:16.927Z,3.8499999999999996
2023-05-21T10:34:16.568Z,3.1500000000000004
2023-05-21T10:37:16.622Z,2.6625000000000005
2023-05-21T10:41:18.097Z,3.0125
2023-05-21T10:44:29.833Z,3.325
2023-05-21T10:48:03.079Z,2.9
2023-05-21T10:51:23.141Z,2.8625
2023-05-21T10:54:37.575Z,3.7250000000000005
2023-05-21T10:57:32.937Z,3.575
2023-05-21T11:01:17.168Z,3.7125
2023-05-21T11:04:22.220Z,3.2125000000000004
2023-05-21T11:07:22.588Z,3.7875
2023-05-21T11:11:39.204Z,3.4125
2023-05-21T11:14:33.670Z,3.3375000000000004
2023-05-21T11:17:35.363Z,3.8875
2023-05-21T11:21:17.332Z,4.325
2023-05-21T11:24:19.284Z,3.5375
2023-05-21T11:27:31.026Z,4.475
2023-05-21T11:31:22.402Z,3.8125
2023-05-21T11:34:19.563Z,5.824999999999999
2023-05-21T11:37:33.673Z,4.85
2023-05-21T11:41:19.535Z,4.3125
2023-05-21T12:01:21.685Z,4.15
2023-05-21T12:04:16.906Z,4.6000000000000005
2023-05-21T12:07:18.787Z,4.4375
2023-05-21T12:11:15.740Z,4.4625
2023-05-21T12:14:17.386Z,4.25
2023-05-21T12:17:19.153Z,4.887499999999999
2023-05-21T12:21:16.418Z,4.1125
2023-05-21T12:24:16.229Z,4.4875
2023-05-21T12:27:16.913Z,4.175
2023-05-21T12:31:16.297Z,4.125
2023-05-21T12:34:37.155Z,3.2375
2023-05-21T12:37:20.178Z,4.0375
2023-05-21T12:41:16.997Z,4.45
2023-05-21T12:44:16.681Z,4.6625
2023-05-21T12:47:18.478Z,4.4875
2023-05-21T12:51:15.712Z,4.5875
2023-05-21T12:54:16.004Z,4.975
2023-05-21T12:57:17.446Z,4.3875
2023-05-21T13:01:16.163Z,5.025
2023-05-21T13:04:18.876Z,3.6625
2023-05-21T13:07:17.761Z,4.1
2023-05-21T13:11:15.892Z,4.9625
2023-05-21T13:14:16.143Z,3.6375
2023-05-21T13:17:16.684Z,5.0875
2023-05-21T13:21:15.910Z,4.050000000000001
2023-05-21T13:24:16.267Z,4.487500000000001
2023-05-21T13:27:16.047Z,3.6375
2023-05-21T13:31:16.215Z,3.5
2023-05-21T13:34:16.713Z,3.7874999999999996
2023-05-21T13:37:16.663Z,4.1625
2023-05-21T13:41:16.158Z,3.45
2023-05-21T13:44:16.610Z,4.075
2023-05-21T13:47:16.579Z,3.6125
2023-05-21T13:51:30.911Z,3.9000000000000004
2023-05-21T13:54:16.544Z,4.625
2023-05-21T13:57:16.409Z,4.7
2023-05-21T14:01:16.466Z,3.8875
2023-05-21T14:21:16.300Z,4.125
2023-05-21T14:24:16.563Z,3.875
2023-05-21T14:27:16.659Z,4.1625
2023-05-21T14:31:16.443Z,4.725
2023-05-21T14:34:16.815Z,3.8375
2023-05-21T14:37:17.156Z,3.4375
2023-05-21T14:41:16.436Z,3.3375000000000004
2023-05-21T14:44:16.721Z,3.2375000000000003
2023-05-21T14:47:16.918Z,3.8
2023-05-21T14:51:16.419Z,3.2750000000000004
2023-05-21T14:54:16.742Z,3.0250000000000004
2023-05-21T14:57:16.768Z,3.6500000000000004
2023-05-21T15:01:16.574Z,3.1
2023-05-21T15:04:16.806Z,2.825
2023-05-21T15:07:16.658Z,2.4625000000000004
2023-05-21T15:11:16.331Z,2.9625
2023-05-21T15:14:16.597Z,3.8375000000000004
2023-05-21T15:17:16.644Z,2.9125
2023-05-21T15:31:16.794Z,3.625
2023-05-21T15:34:17.979Z,2.8374999999999995
2023-05-21T15:37:17.025Z,3.2
2023-05-21T15:41:16.223Z,3.75
2023-05-21T15:44:16.625Z,3.4625
2023-05-21T15:47:16.507Z,4.3500000000000005
2023-05-21T15:51:16.331Z,3.275
2023-05-21T15:54:16.524Z,3.625
2023-05-21T15:57:16.222Z,3.4624999999999995
2023-05-21T16:01:16.622Z,3.4
2023-05-21T16:04:20.084Z,3.5125
2023-05-21T16:07:16.889Z,3.6
2023-05-21T16:11:16.790Z,3.6624999999999996
2023-05-21T16:14:16.547Z,3.3625
2023-05-21T16:17:17.003Z,3.375
2023-05-21T16:21:15.981Z,3.7625
2023-05-21T16:24:16.286Z,3.275
2023-05-21T16:27:16.406Z,3.5
2023-05-21T16:31:16.386Z,4.762499999999999
2023-05-21T16:34:16.549Z,4.5
2023-05-21T16:37:16.709Z,3.4625
2023-05-21T16:41:16.199Z,4.4125
2023-05-21T16:44:16.738Z,3.6375
2023-05-21T16:47:16.589Z,3.35
2023-05-21T16:51:16.755Z,3.8375000000000004
2023-05-21T16:54:16.860Z,3.9625
2023-05-21T16:57:16.794Z,3.9375
2023-05-21T17:01:15.500Z,4.5875
2023-05-21T17:04:16.294Z,4.112500000000001
2023-05-21T17:07:15.961Z,4.3875
2023-05-21T17:11:16.577Z,3.975
2023-05-21T17:14:27.010Z,4.1875
2023-05-21T17:17:16.361Z,4.3375
2023-05-21T17:21:17.229Z,4.4625
2023-05-21T17:24:16.892Z,3.5
2023-05-21T17:27:16.994Z,3.1125
2023-05-21T17:31:17.103Z,5.2
2023-05-21T17:34:17.917Z,4.7875
2023-05-21T17:37:16.704Z,3.95
2023-05-21T17:41:18.296Z,4.1125
2023-05-21T17:44:17.909Z,3.85
2023-05-21T17:47:16.246Z,4.175
2023-05-21T17:51:16.839Z,4.6
2023-05-21T17:54:16.693Z,4.3
2023-05-21T17:57:18.013Z,4.6125
2023-05-21T18:01:16.839Z,4.199999999999999
2023-05-21T18:04:16.992Z,3.9625
2023-05-21T18:07:16.955Z,3.2249999999999996
2023-05-21T18:11:16.306Z,3.4875
2023-05-21T18:14:16.726Z,2.7750000000000004
2023-05-21T18:17:16.834Z,3.75
2023-05-21T18:21:16.039Z,4.1000000000000005
2023-05-21T18:24:16.194Z,3.9875
2023-05-21T18:27:16.402Z,4.3875
2023-05-21T18:31:17.176Z,3.8499999999999996
2023-05-21T18:34:17.379Z,3.3375
2023-05-21T18:37:17.024Z,3.9499999999999997
2023-05-21T18:41:15.961Z,3.825
2023-05-21T18:44:16.543Z,3.8625
2023-05-21T18:47:16.736Z,3.1375
2023-05-21T18:51:16.577Z,5.1375
2023-05-21T18:54:16.527Z,3.9625
2023-05-21T18:57:17.174Z,3.6625
2023-05-21T19:01:16.155Z,3.875
2023-05-21T19:04:17.601Z,4.175
2023-05-21T19:07:16.326Z,3.425
2023-05-21T19:11:17.600Z,3.7625
2023-05-21T19:14:16.867Z,4.75
2023-05-21T19:17:17.155Z,4.5249999999999995
2023-05-21T19:21:16.710Z,3.8875
2023-05-21T19:24:16.495Z,4.125
2023-05-21T19:27:18.208Z,3.9875
2023-05-21T19:31:16.499Z,4.05
2023-05-21T19:34:16.886Z,3.0875000000000004
2023-05-21T19:37:16.871Z,3.75
2023-05-21T19:41:16.432Z,3.55
2023-05-21T19:44:17.359Z,4.2375
2023-05-21T19:47:16.584Z,3.8124999999999996
2023-05-21T19:51:16.741Z,5.012499999999999
2023-05-21T19:54:16.777Z,3.8374999999999995
2023-05-21T19:57:16.893Z,4.237500000000001
2023-05-21T20:01:16.827Z,4.175000000000001
2023-05-21T20:04:17.351Z,3.775
2023-05-21T20:07:16.769Z,4.5
2023-05-21T20:11:17.074Z,4.55
2023-05-21T20:14:17.306Z,4.4375
2023-05-21T20:17:19.116Z,3.925
2023-05-21T20:21:18.608Z,4.1125
2023-05-21T20:24:17.274Z,4.375
2023-05-21T20:27:19.355Z,4.1375
2023-05-21T20:31:16.611Z,4.5375
2023-05-21T20:34:18.335Z,4.4875
2023-05-21T20:37:17.482Z,3.6374999999999997
2023-05-21T20:41:17.140Z,3.9375
2023-05-21T20:44:16.863Z,3.7750000000000004
2023-05-21T20:47:17.024Z,4.1
2023-05-21T20:51:16.277Z,4.1875
2023-05-21T20:54:16.362Z,3.9124999999999996
2023-05-21T20:57:16.647Z,3.125
2023-05-21T21:01:17.764Z,4.2875000000000005
2023-05-21T21:04:17.744Z,3.3375000000000004
2023-05-21T21:07:18.578Z,3.8125000000000004
2023-05-21T21:11:16.154Z,3.975
2023-05-21T21:14:16.317Z,3.9125000000000005
2023-05-21T21:17:16.455Z,2.8125
2023-05-21T21:21:15.915Z,4.75
2023-05-21T21:24:16.221Z,3.85
2023-05-21T21:27:16.317Z,3.7
2023-05-21T21:31:17.577Z,3.5375
2023-05-21T21:34:16.092Z,3.8875
2023-05-21T21:37:16.478Z,3.6750000000000003
2023-05-21T21:41:15.994Z,3.7
2023-05-21T21:44:16.270Z,3.5749999999999997
2023-05-21T21:47:16.204Z,4.0375
2023-05-21T21:51:16.627Z,4.05
2023-05-21T21:54:16.237Z,4.575
2023-05-21T21:57:16.355Z,3.9625000000000004
2023-05-21T22:01:16.032Z,4.9125
2023-05-21T22:04:16.031Z,3.9375
2023-05-21T22:07:17.905Z,3.5125
2023-05-21T22:11:15.983Z,3.8125
2023-05-21T22:14:18.210Z,3.8875
2023-05-21T22:17:17.876Z,4.550000000000001
2023-05-21T22:21:18.560Z,4.3125
2023-05-21T22:24:31.007Z,4.225
2023-05-21T22:27:16.890Z,4.5625
2023-05-21T22:31:16.609Z,3.6874999999999996
2023-05-21T22:34:16.325Z,3.4374999999999996
2023-05-21T22:37:16.608Z,3.7
2023-05-21T22:41:16.303Z,4.612500000000001
2023-05-21T22:44:16.291Z,4.15
2023-05-21T22:47:16.429Z,3.7625
2023-05-21T22:51:16.651Z,4.5874999999999995
2023-05-21T22:54:17.149Z,4.387499999999999
2023-05-21T22:57:16.931Z,4.3125
2023-05-21T23:01:16.152Z,4.512500000000001
2023-05-21T23:04:16.439Z,4.75
2023-05-21T23:07:16.464Z,3.575
2023-05-21T23:11:15.986Z,5.512499999999999
2023-05-21T23:14:16.144Z,4.9625
2023-05-21T23:17:15.988Z,5.25
2023-05-21T23:21:15.989Z,4.9
2023-05-21T23:24:16.047Z,5.199999999999999
2023-05-21T23:27:15.990Z,5.5249999999999995
2023-05-21T23:31:16.513Z,5.4375
2023-05-21T23:34:16.295Z,5.65
2023-05-21T23:37:16.294Z,5.175
2023-05-21T23:41:15.849Z,6.1
2023-05-21T23:44:16.166Z,5.6375
2023-05-21T23:47:16.092Z,5.25
2023-05-21T23:51:16.689Z,5.15
2023-05-21T23:54:16.893Z,5.35
2023-05-21T23:57:16.159Z,5.45
